Terminal Aerodrome Forecast
Issued by NWS

Home | Current Version | Previous Version | Text Only | Print | Product List | Glossary On
Versions: 1 2 3 4 5 6 7 8 9 10 11 12 13 14
000
FTUS45 KREV 062236 AAA
TAFMMH
TAF AMD
KMMH 062236Z 0623/0718 28015G30KT P6SM VCTS SCT050CB BKN090
      TEMPO 0623/0624 TSRA SCT020 BKN050CB
     FM070200 28008KT P6SM SCT070 BKN140
     FM070500 32006KT P6SM FEW070 SCT140 BKN180
     FM070900 VRB03KT P6SM SCT150=

USA.gov is the U.S. government's official web portal to all federal, state and local government web resources and services.